createdAt,value
2018-01-12T00:02:27.238Z,66.13
2018-01-12T00:04:55.477Z,55.97
2018-01-12T00:07:24.471Z,50.87
2018-01-12T00:09:52.989Z,57.90
2018-01-12T00:12:21.948Z,58.47
2018-01-12T00:14:50.242Z,57.73
2018-01-12T00:17:18.452Z,57.00
2018-01-12T00:19:46.688Z,59.37
2018-01-12T00:22:14.913Z,59.20
2018-01-12T00:24:43.959Z,59.53
2018-01-12T00:27:12.964Z,56.37
2018-01-12T00:29:41.197Z,57.50
2018-01-12T00:32:10.177Z,58.77
2018-01-12T00:34:38.412Z,58.87
2018-01-12T00:37:06.643Z,61.30
2018-01-12T00:39:35.634Z,52.30
2018-01-12T00:42:04.650Z,52.93
2018-01-12T00:44:32.868Z,48.63
2018-01-12T00:47:01.100Z,53.40
2018-01-12T00:49:29.317Z,55.40
2018-01-12T00:51:57.548Z,60.17
2018-01-12T00:54:25.769Z,57.80
2018-01-12T00:56:54.005Z,55.87
2018-01-12T00:59:22.229Z,57.63
2018-01-12T01:01:50.498Z,52.50
2018-01-12T01:04:18.706Z,49.30
2018-01-12T01:06:46.948Z,52.10
2018-01-12T01:09:15.261Z,58.47
2018-01-12T01:11:43.536Z,55.20
2018-01-12T01:14:12.529Z,54.90
2018-01-12T01:16:40.805Z,54.87
2018-01-12T01:19:09.235Z,56.00
2018-01-12T01:21:37.489Z,55.67
2018-01-12T01:24:05.738Z,58.90
2018-01-12T01:26:34.705Z,57.53
2018-01-12T01:29:03.696Z,57.60
2018-01-12T01:31:32.717Z,61.93
2018-01-12T01:34:01.178Z,56.00
2018-01-12T01:36:30.157Z,58.70
2018-01-12T01:38:59.483Z,61.27
2018-01-12T01:41:28.446Z,59.50
2018-01-12T01:43:56.677Z,67.67
2018-01-12T01:46:24.897Z,55.57
2018-01-12T01:48:53.137Z,58.33
2018-01-12T01:51:21.670Z,52.30
2018-01-12T01:53:49.893Z,58.53
2018-01-12T01:56:18.123Z,59.27
2018-01-12T01:58:47.097Z,61.87
2018-01-12T02:01:16.102Z,60.57
2018-01-12T02:03:45.075Z,58.80
2018-01-12T02:06:13.306Z,57.57
2018-01-12T02:08:41.546Z,56.70
2018-01-12T02:11:10.549Z,61.27
2018-01-12T02:13:39.521Z,58.60
2018-01-12T02:16:08.520Z,68.53
2018-01-12T02:18:37.508Z,60.50
2018-01-12T02:21:05.730Z,74.30
2018-01-12T02:23:34.006Z,70.67
2018-01-12T02:26:02.216Z,68.17
2018-01-12T02:28:30.717Z,61.20
2018-01-12T02:30:59.197Z,60.70
2018-01-12T02:33:27.453Z,59.73
2018-01-12T02:35:55.722Z,59.80
2018-01-12T02:38:24.006Z,56.90
2018-01-12T02:40:52.220Z,56.13
2018-01-12T02:43:20.460Z,50.67
2018-01-12T02:45:48.681Z,50.13
2018-01-12T02:48:16.902Z,49.70
2018-01-12T02:50:45.113Z,48.77
2018-01-12T02:53:13.345Z,44.57
2018-01-12T02:55:41.586Z,48.13
2018-01-12T02:58:09.857Z,45.90
2018-01-12T03:00:38.401Z,48.13
2018-01-12T03:03:07.317Z,45.83
2018-01-12T03:05:35.546Z,46.60
2018-01-12T03:08:04.151Z,49.80
2018-01-12T03:10:33.177Z,48.63
2018-01-12T03:13:01.419Z,44.80
2018-01-12T03:15:30.396Z,43.13
2018-01-12T03:17:58.612Z,44.37
2018-01-12T03:20:26.829Z,42.10
2018-01-12T03:22:55.110Z,49.20
2018-01-12T03:25:24.845Z,48.93
2018-01-12T03:27:53.099Z,47.40
2018-01-12T03:30:21.310Z,45.30
2018-01-12T03:32:50.304Z,46.17
2018-01-12T03:35:18.766Z,51.23
2018-01-12T03:37:47.745Z,43.87
2018-01-12T03:40:15.976Z,45.30
2018-01-12T03:42:44.233Z,46.60
2018-01-12T03:45:12.465Z,44.53
2018-01-12T03:47:41.482Z,49.40
2018-01-12T03:50:09.745Z,47.83
2018-01-12T03:52:37.996Z,44.17
2018-01-12T03:55:06.219Z,46.90
2018-01-12T03:57:34.433Z,45.37
2018-01-12T04:00:02.685Z,50.43
2018-01-12T04:02:30.926Z,47.43
2018-01-12T04:04:59.191Z,47.40
2018-01-12T04:07:27.413Z,46.27
2018-01-12T04:09:55.629Z,52.90
2018-01-12T04:12:24.639Z,49.40
2018-01-12T04:14:53.629Z,48.47
2018-01-12T04:17:21.921Z,47.17
2018-01-12T04:19:50.180Z,48.70
2018-01-12T04:22:19.172Z,41.83
2018-01-12T04:24:48.167Z,43.30
2018-01-12T04:27:17.166Z,47.10
2018-01-12T04:29:45.418Z,45.60
2018-01-12T04:34:52.844Z,38.10
2018-01-12T04:37:22.142Z,38.90
2018-01-12T04:39:50.625Z,43.77
2018-01-12T04:42:19.929Z,45.83
2018-01-12T04:44:48.205Z,44.77
2018-01-12T04:47:17.496Z,43.20
2018-01-12T04:49:46.901Z,42.40
2018-01-12T04:52:15.897Z,47.93
2018-01-12T04:54:44.204Z,43.33
2018-01-12T04:57:12.418Z,44.70
2018-01-12T04:59:40.654Z,44.07
2018-01-12T05:02:08.891Z,42.27
2018-01-12T05:04:37.902Z,43.93
2018-01-12T05:07:06.207Z,36.67
2018-01-12T05:09:34.458Z,38.90
2018-01-12T05:12:02.694Z,43.00
2018-01-12T05:14:31.698Z,37.50
2018-01-12T05:16:59.939Z,37.70
2018-01-12T05:19:28.175Z,43.07
2018-01-12T05:21:56.429Z,37.50
2018-01-12T05:24:25.405Z,34.87
2018-01-12T05:26:53.633Z,36.83
2018-01-12T05:29:21.856Z,36.60
2018-01-12T05:31:50.865Z,40.33
2018-01-12T05:34:19.857Z,36.93
2018-01-12T05:36:48.096Z,36.33
2018-01-12T05:39:16.397Z,36.93
2018-01-12T05:41:45.409Z,33.50
2018-01-12T05:44:13.685Z,36.47
2018-01-12T05:46:41.926Z,36.17
2018-01-12T05:49:10.254Z,38.00
2018-01-12T05:51:38.506Z,41.90
2018-01-12T05:54:06.734Z,37.83
2018-01-12T05:56:35.009Z,42.57
2018-01-12T05:59:03.318Z,38.67
2018-01-12T06:01:43.485Z,40.00
2018-01-12T06:04:23.945Z,40.33
2018-01-12T06:06:52.917Z,36.77
2018-01-12T06:09:22.233Z,34.53
2018-01-12T06:11:50.489Z,39.30
2018-01-12T06:14:18.717Z,42.50
2018-01-12T06:16:46.946Z,41.80
2018-01-12T06:19:15.170Z,41.60
2018-01-12T06:21:43.410Z,38.23
2018-01-12T06:24:11.651Z,39.33
2018-01-12T06:26:39.873Z,44.23
2018-01-12T06:29:08.097Z,44.87
2018-01-12T06:31:36.337Z,43.10
2018-01-12T06:34:04.601Z,42.33
2018-01-12T06:36:32.829Z,49.53
2018-01-12T06:39:01.117Z,43.07
2018-01-12T06:41:29.467Z,39.40
2018-01-12T06:43:57.695Z,44.30
2018-01-12T06:46:25.933Z,44.33
2018-01-12T06:48:54.180Z,43.67
2018-01-12T06:51:22.433Z,43.10
2018-01-12T06:53:50.640Z,40.83
2018-01-12T06:56:18.925Z,41.17
2018-01-12T06:58:47.144Z,39.87
2018-01-12T07:01:15.410Z,39.90
2018-01-12T07:03:44.426Z,40.00
2018-01-12T07:06:12.653Z,50.07
2018-01-12T07:08:40.905Z,40.87
2018-01-12T07:11:09.439Z,42.80
2018-01-12T07:13:38.441Z,38.00
2018-01-12T07:16:06.664Z,39.57
2018-01-12T07:18:34.921Z,46.30
2018-01-12T07:34:33.414Z,36.60
2018-01-12T07:37:02.437Z,38.60
2018-01-12T07:39:30.697Z,39.40
2018-01-12T07:41:59.685Z,40.43
2018-01-12T07:44:27.924Z,40.97
2018-01-12T07:46:56.141Z,38.00
2018-01-12T07:49:25.151Z,37.97
2018-01-12T07:51:53.622Z,39.27
2018-01-12T07:54:21.861Z,45.43
2018-01-12T07:56:50.089Z,40.80
2018-01-12T07:59:18.327Z,40.87
2018-01-12T08:01:52.242Z,40.90
2018-01-12T08:04:20.522Z,37.13
2018-01-12T08:06:49.508Z,39.77
2018-01-12T08:09:17.796Z,40.10
2018-01-12T08:11:47.099Z,42.33
2018-01-12T08:14:15.345Z,38.33
2018-01-12T08:16:43.568Z,36.20
2018-01-12T08:19:11.797Z,37.57
2018-01-12T08:21:40.809Z,37.10
2018-01-12T08:24:09.796Z,38.77
2018-01-12T08:26:38.817Z,37.20
2018-01-12T08:29:07.072Z,40.67
2018-01-12T08:31:36.077Z,39.07
2018-01-12T08:34:05.085Z,40.67
2018-01-12T08:36:33.316Z,41.60
2018-01-12T08:39:01.586Z,41.00
2018-01-12T08:41:29.796Z,41.73
2018-01-12T08:43:58.024Z,39.93
2018-01-12T08:46:26.273Z,40.97
2018-01-12T08:48:54.511Z,45.17
2018-01-12T08:51:23.929Z,40.30
2018-01-12T08:53:52.161Z,40.40
2018-01-12T08:56:20.386Z,36.37
2018-01-12T08:58:48.676Z,36.30
2018-01-12T09:01:17.017Z,33.43
2018-01-12T09:03:45.205Z,34.33
2018-01-12T09:06:13.439Z,35.43
2018-01-12T09:08:41.721Z,35.70
2018-01-12T09:11:09.993Z,39.87
2018-01-12T09:13:50.030Z,36.50
2018-01-12T09:16:27.004Z,33.43
2018-01-12T09:19:06.995Z,36.57
2018-01-12T09:21:36.905Z,34.90
2018-01-12T09:24:18.094Z,33.40
2018-01-12T09:26:46.775Z,34.87
2018-01-12T09:29:15.354Z,34.03
2018-01-12T09:31:43.590Z,33.07
2018-01-12T09:34:23.704Z,31.43
2018-01-12T09:36:51.981Z,33.03
2018-01-12T09:39:32.112Z,31.20
2018-01-12T09:42:00.354Z,34.37
2018-01-12T09:44:28.593Z,32.00
2018-01-12T09:47:08.814Z,34.90
2018-01-12T09:49:53.780Z,33.00
2018-01-12T09:52:22.005Z,37.40
2018-01-12T09:54:50.260Z,34.10
2018-01-12T09:57:18.525Z,31.27
2018-01-12T09:59:46.784Z,33.87
2018-01-12T10:02:15.049Z,33.03
2018-01-12T10:04:44.037Z,35.90
2018-01-12T10:07:19.802Z,35.57
2018-01-12T10:09:48.794Z,33.87
2018-01-12T10:12:17.052Z,34.33
2018-01-12T10:14:45.277Z,33.67
2018-01-12T10:17:13.761Z,34.27
2018-01-12T10:33:47.734Z,33.10
2018-01-12T10:36:20.613Z,34.97
2018-01-12T10:38:58.429Z,34.70
2018-01-12T10:41:38.589Z,33.30
2018-01-12T10:44:06.832Z,33.53
2018-01-12T10:46:45.737Z,36.73
2018-01-12T10:49:27.192Z,35.00
2018-01-12T10:52:06.281Z,35.97
2018-01-12T10:54:34.476Z,37.77
2018-01-12T10:57:02.727Z,34.67
2018-01-12T10:59:31.729Z,36.53
2018-01-12T11:01:59.951Z,34.80
2018-01-12T11:04:28.224Z,37.57
2018-01-12T11:06:56.445Z,48.90
2018-01-12T11:09:24.677Z,35.23
2018-01-12T11:11:52.900Z,38.03
2018-01-12T11:14:21.139Z,39.40
2018-01-12T11:16:49.362Z,36.47
2018-01-12T11:19:17.736Z,40.40
2018-01-12T11:21:45.992Z,36.80
2018-01-12T11:24:14.976Z,39.73
2018-01-12T11:26:43.974Z,44.53
2018-01-12T11:29:12.961Z,35.87
2018-01-12T11:31:41.987Z,36.93
2018-01-12T11:34:10.241Z,37.27
2018-01-12T11:36:38.500Z,38.97
2018-01-12T11:39:07.497Z,37.47
2018-01-12T11:41:35.737Z,37.70
2018-01-12T11:44:03.965Z,37.20
2018-01-12T11:46:32.223Z,33.10
2018-01-12T11:49:00.461Z,38.97
2018-01-12T11:51:28.701Z,36.50
2018-01-12T11:53:56.949Z,41.80
2018-01-12T11:56:25.188Z,40.87
2018-01-12T11:58:53.433Z,45.50
2018-01-12T12:01:21.670Z,43.87
2018-01-12T12:03:50.688Z,45.30
2018-01-12T12:06:18.902Z,43.70
2018-01-12T12:08:47.145Z,40.37
2018-01-12T12:11:15.376Z,39.77
2018-01-12T12:13:43.601Z,48.20
2018-01-12T12:16:11.830Z,40.50
2018-01-12T12:18:40.326Z,41.60
2018-01-12T12:21:09.337Z,41.30
2018-01-12T12:23:37.617Z,43.43
2018-01-12T12:26:05.889Z,47.27
2018-01-12T12:28:34.117Z,42.13
2018-01-12T12:31:02.381Z,44.10
2018-01-12T12:33:30.628Z,50.33
2018-01-12T12:35:58.877Z,45.10
2018-01-12T12:38:27.117Z,55.53
2018-01-12T12:40:55.339Z,46.80
2018-01-12T12:43:23.584Z,46.03
2018-01-12T12:45:52.582Z,47.37
2018-01-12T12:48:20.848Z,49.43
2018-01-12T12:50:49.089Z,45.77
2018-01-12T12:53:17.297Z,44.03
2018-01-12T12:55:45.566Z,47.10
2018-01-12T12:58:13.793Z,46.17
2018-01-12T13:00:42.077Z,50.87
2018-01-12T13:03:10.309Z,50.10
2018-01-12T13:05:38.572Z,45.87
2018-01-12T13:08:07.586Z,43.23
2018-01-12T13:10:36.564Z,45.87
2018-01-12T13:13:04.809Z,47.03
2018-01-12T13:15:33.056Z,45.93
2018-01-12T13:18:01.260Z,44.83
2018-01-12T13:20:29.504Z,45.67
2018-01-12T13:22:57.767Z,44.97
2018-01-12T13:25:25.987Z,41.47
2018-01-12T13:27:54.230Z,48.10
2018-01-12T13:30:22.461Z,49.40
2018-01-12T13:32:50.703Z,45.30
2018-01-12T13:35:18.947Z,43.83
2018-01-12T13:37:47.397Z,38.30
2018-01-12T13:40:16.385Z,46.77
2018-01-12T13:42:45.389Z,42.70
2018-01-12T13:45:14.396Z,44.40
2018-01-12T13:47:43.066Z,43.67
2018-01-12T13:50:11.541Z,44.10
2018-01-12T13:52:39.776Z,42.63
2018-01-12T13:55:08.815Z,41.13
2018-01-12T13:57:37.041Z,43.23
2018-01-12T14:00:05.507Z,41.83
2018-01-12T14:02:33.738Z,48.87
2018-01-12T14:05:01.990Z,44.53
2018-01-12T14:07:31.038Z,46.77
2018-01-12T14:09:59.229Z,44.50
2018-01-12T14:12:27.457Z,45.77
2018-01-12T14:14:55.745Z,44.30
2018-01-12T14:17:23.973Z,46.40
2018-01-12T14:19:52.217Z,47.67
2018-01-12T14:22:20.458Z,47.03
2018-01-12T14:24:48.835Z,43.97
2018-01-12T14:27:17.029Z,49.20
2018-01-12T14:29:45.253Z,44.80
2018-01-12T14:32:13.494Z,49.00
2018-01-12T14:34:41.732Z,43.37
2018-01-12T14:37:10.734Z,48.90
2018-01-12T14:39:39.721Z,49.63
2018-01-12T14:42:07.985Z,44.83
2018-01-12T14:44:36.988Z,46.73
2018-01-12T14:47:06.098Z,41.67
2018-01-12T14:49:35.075Z,46.10
2018-01-12T14:52:03.348Z,43.33
2018-01-12T14:54:31.606Z,49.73
2018-01-12T14:57:00.613Z,46.67
2018-01-12T14:59:29.619Z,49.27
2018-01-12T15:01:57.846Z,54.30
2018-01-12T15:04:26.090Z,43.73
2018-01-12T15:06:54.317Z,46.50
2018-01-12T15:09:23.320Z,47.27
2018-01-12T15:11:51.588Z,42.47
2018-01-12T15:14:19.821Z,44.33
2018-01-12T15:16:48.049Z,45.43
2018-01-12T15:19:17.066Z,47.87
2018-01-12T15:21:45.310Z,46.20
2018-01-12T15:24:13.572Z,41.60
2018-01-12T15:26:41.812Z,45.90
2018-01-12T15:29:10.062Z,47.10
2018-01-12T15:31:38.318Z,49.83
2018-01-12T15:34:07.345Z,42.43
2018-01-12T15:36:36.308Z,40.70
2018-01-12T15:39:05.305Z,44.50
2018-01-12T15:41:33.554Z,46.57
2018-01-12T15:44:02.573Z,54.90
2018-01-12T15:46:30.850Z,48.30
2018-01-12T15:48:59.094Z,48.83
2018-01-12T15:51:27.368Z,44.10
2018-01-12T15:53:55.588Z,46.00
2018-01-12T15:56:23.852Z,48.23
2018-01-12T15:58:52.114Z,49.43
2018-01-12T16:01:21.425Z,46.57
2018-01-12T16:03:49.648Z,46.00
2018-01-12T16:06:17.877Z,50.40
2018-01-12T16:08:46.120Z,63.77
2018-01-12T16:11:14.726Z,49.90
2018-01-12T16:13:43.065Z,52.50
2018-01-12T16:16:11.320Z,52.50
2018-01-12T16:18:39.552Z,58.50
2018-01-12T16:21:07.796Z,61.63
2018-01-12T16:23:36.017Z,55.60
2018-01-12T16:26:04.281Z,61.40
2018-01-12T16:28:32.546Z,52.90
2018-01-12T16:31:01.849Z,61.37
2018-01-12T16:33:30.101Z,53.30
2018-01-12T16:35:58.357Z,51.37
2018-01-12T16:38:26.610Z,52.13
2018-01-12T16:40:55.265Z,49.27
2018-01-12T16:43:23.500Z,56.80
2018-01-12T16:45:51.778Z,53.60
2018-01-12T16:48:20.029Z,52.53
2018-01-12T16:50:48.672Z,46.97
2018-01-12T16:53:16.922Z,59.47
2018-01-12T16:55:45.934Z,58.43
2018-01-12T16:58:14.928Z,56.60
2018-01-12T17:00:43.213Z,55.10
2018-01-12T17:03:11.475Z,60.13
2018-01-12T17:05:39.681Z,56.67
2018-01-12T17:08:07.929Z,64.97
2018-01-12T17:10:36.942Z,58.63
2018-01-12T17:13:05.244Z,57.37
2018-01-12T17:15:33.473Z,56.83
2018-01-12T17:18:02.469Z,51.87
2018-01-12T17:20:31.297Z,55.87
2018-01-12T17:23:00.245Z,60.10
2018-01-12T17:25:29.242Z,57.73
2018-01-12T17:27:57.485Z,60.83
2018-01-12T17:30:25.742Z,55.27
2018-01-12T17:32:53.962Z,59.97
2018-01-12T17:35:23.266Z,57.67
2018-01-12T17:37:51.513Z,55.00
2018-01-12T17:40:19.764Z,54.67
2018-01-12T17:42:48.009Z,56.77
2018-01-12T17:45:16.225Z,59.77
2018-01-12T17:47:44.496Z,63.03
2018-01-12T17:50:12.748Z,62.83
2018-01-12T17:52:41.309Z,60.57
2018-01-12T17:55:10.285Z,60.30
2018-01-12T17:57:38.533Z,63.33
2018-01-12T18:00:07.041Z,61.37
2018-01-12T18:02:36.343Z,62.27
2018-01-12T18:05:04.595Z,56.27
2018-01-12T18:07:32.873Z,63.87
2018-01-12T18:10:01.141Z,54.17
2018-01-12T18:12:30.145Z,52.67
2018-01-12T18:14:58.473Z,61.57
2018-01-12T18:17:26.706Z,54.93
2018-01-12T18:19:54.953Z,47.60
2018-01-12T18:22:23.201Z,56.80
2018-01-12T18:24:51.425Z,52.23
2018-01-12T18:27:20.438Z,51.27
2018-01-12T18:29:48.674Z,51.63
2018-01-12T18:32:16.938Z,48.97
2018-01-12T18:34:45.154Z,52.20
2018-01-12T18:37:13.389Z,51.43
2018-01-12T18:39:41.701Z,48.27
2018-01-12T18:42:09.972Z,53.37
2018-01-12T18:44:38.268Z,54.27
2018-01-12T18:47:06.525Z,51.40
2018-01-12T18:49:35.532Z,63.60
2018-01-12T18:52:03.780Z,153.30
2018-01-12T18:54:32.063Z,46.43
2018-01-12T18:57:01.067Z,58.20
2018-01-12T18:59:29.548Z,48.57
2018-01-12T19:01:58.557Z,49.70
2018-01-12T19:04:26.809Z,51.93
2018-01-12T19:06:55.003Z,47.00
2018-01-12T19:09:23.286Z,49.30
2018-01-12T19:11:51.504Z,47.70
2018-01-12T19:14:19.748Z,47.33
2018-01-12T19:16:47.981Z,45.20
2018-01-12T19:19:16.251Z,65.37
2018-01-12T19:21:44.538Z,45.50
2018-01-12T19:24:12.818Z,45.30
2018-01-12T19:26:41.037Z,56.87
2018-01-12T19:29:09.300Z,40.73
2018-01-12T19:31:37.549Z,43.20
2018-01-12T19:34:05.772Z,57.93
2018-01-12T19:36:34.012Z,45.47
2018-01-12T19:39:02.282Z,42.20
2018-01-12T19:41:31.261Z,44.80
2018-01-12T19:44:00.305Z,48.07
2018-01-12T19:46:28.573Z,44.90
2018-01-12T19:48:56.792Z,43.83
2018-01-12T19:51:25.053Z,45.10
2018-01-12T19:53:53.350Z,45.10
2018-01-12T19:56:21.656Z,47.67
2018-01-12T19:58:50.717Z,46.77
2018-01-12T20:01:18.965Z,44.80
2018-01-12T20:03:47.358Z,43.43
2018-01-12T20:06:15.582Z,41.33
2018-01-12T20:08:44.048Z,44.03
2018-01-12T20:11:12.337Z,40.87
2018-01-12T20:13:41.298Z,49.63
2018-01-12T20:19:09.096Z,48.33
2018-01-12T20:21:38.171Z,43.83
2018-01-12T20:24:07.242Z,43.20
2018-01-12T20:26:35.505Z,48.17
2018-01-12T20:29:03.750Z,48.80
2018-01-12T20:31:31.969Z,45.47
2018-01-12T20:34:00.222Z,49.23
2018-01-12T20:36:28.449Z,42.00
2018-01-12T20:38:56.750Z,42.23
2018-01-12T20:41:24.929Z,42.63
2018-01-12T20:43:53.240Z,39.60
2018-01-12T20:46:21.433Z,39.27
2018-01-12T20:48:49.689Z,39.73
2018-01-12T20:51:18.057Z,39.83
2018-01-12T20:53:46.293Z,42.17
2018-01-12T20:56:14.529Z,43.40
2018-01-12T20:58:42.761Z,42.33
2018-01-12T21:01:11.828Z,45.40
2018-01-12T21:03:40.107Z,43.20
2018-01-12T21:06:08.417Z,38.73
2018-01-12T21:08:36.641Z,44.33
2018-01-12T21:11:05.623Z,49.90
2018-01-12T21:13:34.650Z,43.57
2018-01-12T21:16:03.332Z,46.43
2018-01-12T21:18:32.337Z,47.60
2018-01-12T21:21:00.601Z,47.27
2018-01-12T21:23:29.671Z,50.67
2018-01-12T21:25:57.904Z,45.10
2018-01-12T21:28:26.149Z,50.87
2018-01-12T21:30:54.388Z,51.13
2018-01-12T21:33:22.610Z,45.27
2018-01-12T21:35:50.836Z,52.93
2018-01-12T21:38:19.261Z,45.83
2018-01-12T21:40:47.812Z,47.10
2018-01-12T21:43:16.812Z,46.37
2018-01-12T21:45:45.800Z,44.00
2018-01-12T21:51:11.469Z,46.83
2018-01-12T21:53:39.730Z,46.03
2018-01-12T21:56:08.026Z,43.27
2018-01-12T21:58:36.298Z,45.53
2018-01-12T22:01:04.522Z,44.93
2018-01-12T22:03:33.540Z,40.50
2018-01-12T22:06:01.750Z,40.97
2018-01-12T22:08:29.990Z,39.77
2018-01-12T22:10:58.414Z,41.10
2018-01-12T22:13:26.637Z,43.77
2018-01-12T22:15:54.899Z,41.87
2018-01-12T22:18:23.900Z,46.13
2018-01-12T22:20:52.911Z,42.47
2018-01-12T22:23:21.125Z,50.80
2018-01-12T22:25:49.356Z,48.40
2018-01-12T22:28:17.623Z,44.37
2018-01-12T22:30:45.905Z,47.23
2018-01-12T22:33:14.130Z,43.93
2018-01-12T22:35:42.373Z,38.97
2018-01-12T22:38:10.599Z,44.07
2018-01-12T22:40:38.896Z,39.87
2018-01-12T22:43:07.154Z,40.40
2018-01-12T22:45:35.439Z,42.63
2018-01-12T22:48:03.656Z,40.83
2018-01-12T22:50:31.896Z,41.13
2018-01-12T22:53:00.145Z,38.97
2018-01-12T22:55:28.444Z,38.90
2018-01-12T22:57:56.709Z,41.50
2018-01-12T23:00:24.961Z,39.63
2018-01-12T23:02:53.247Z,40.17
2018-01-12T23:05:21.488Z,43.30
2018-01-12T23:07:49.704Z,44.30
2018-01-12T23:10:17.950Z,45.70
2018-01-12T23:12:46.997Z,40.13
2018-01-12T23:15:15.248Z,40.47
2018-01-12T23:17:43.678Z,42.03
2018-01-12T23:20:12.005Z,44.60
2018-01-12T23:22:40.237Z,43.80
2018-01-12T23:25:09.305Z,38.10
2018-01-12T23:27:37.545Z,44.87
2018-01-12T23:30:05.875Z,43.13
2018-01-12T23:32:34.142Z,40.83
2018-01-12T23:35:02.393Z,39.73
2018-01-12T23:37:30.710Z,40.53
2018-01-12T23:39:58.946Z,43.27
2018-01-12T23:42:27.945Z,48.00
2018-01-12T23:44:57.125Z,43.37
2018-01-12T23:47:25.425Z,45.23
2018-01-12T23:49:53.948Z,41.67
2018-01-12T23:52:22.970Z,42.30
2018-01-12T23:54:51.237Z,38.30
2018-01-12T23:57:19.495Z,62.13
2018-01-12T23:59:47.720Z,45.77
